Terminal Aerodrome Forecast
Issued by NWS Grand Forks, ND

Home | Current Version | Previous Version | Graphics & Text | Print | Product List | Glossary On
Versions: 1 2 3 4 5 6 7 8 9 10 11 12 13
247
FTUS43 KFGF 161138
TAFFAR
TAF
KFAR 161138Z 1612/1712 29004KT P6SM SCT100
     FM161500 23004KT P6SM SCT250
     FM162000 20008KT P6SM SCT250=

USA.gov is the U.S. government's official web portal to all federal, state and local government web resources and services.